createdAt,value
2022-12-20T00:00:34.724Z,1010.74
2022-12-20T00:01:34.747Z,1010.90
2022-12-20T00:02:34.799Z,1010.66
2022-12-20T00:03:34.603Z,1010.98
2022-12-20T00:04:34.571Z,1010.58
2022-12-20T00:05:34.511Z,1010.95
2022-12-20T00:06:34.489Z,1010.58
2022-12-20T00:07:34.432Z,1010.89
2022-12-20T00:08:34.393Z,1010.50
2022-12-20T00:09:34.352Z,1010.50
2022-12-20T00:10:34.320Z,1010.84
2022-12-20T00:11:34.274Z,1010.72
2022-12-20T00:12:34.247Z,1010.86
2022-12-20T00:13:34.197Z,1010.41
2022-12-20T00:14:34.150Z,1010.56
2022-12-20T00:15:34.110Z,1010.35
2022-12-20T00:16:34.069Z,1010.31
2022-12-20T00:17:34.066Z,1010.40
2022-12-20T00:18:33.988Z,1010.44
2022-12-20T00:19:33.961Z,1010.38
2022-12-20T00:20:33.907Z,1010.36
2022-12-20T00:21:33.861Z,1010.66
2022-12-20T00:22:33.820Z,1010.68
2022-12-20T00:23:33.779Z,1010.70
2022-12-20T00:24:33.751Z,1010.69
2022-12-20T00:25:33.715Z,1010.67
2022-12-20T00:26:33.657Z,1010.39
2022-12-20T00:27:33.615Z,1010.46
2022-12-20T00:28:33.582Z,1010.32
2022-12-20T00:29:33.542Z,1010.39
2022-12-20T00:30:33.507Z,1010.65
2022-12-20T00:31:33.531Z,1010.67
2022-12-20T00:32:33.411Z,1010.67
2022-12-20T00:33:33.381Z,1010.36
2022-12-20T00:34:33.332Z,1010.40
2022-12-20T00:35:33.296Z,1010.42
2022-12-20T00:36:33.293Z,1010.38
2022-12-20T00:37:33.214Z,1010.42
2022-12-20T00:38:33.179Z,1010.71
2022-12-20T00:39:33.142Z,1010.39
2022-12-20T00:40:33.099Z,1010.51
2022-12-20T00:41:33.042Z,1010.41
2022-12-20T00:42:33.020Z,1010.46
2022-12-20T00:43:32.969Z,1010.46
2022-12-20T00:44:32.928Z,1010.82
2022-12-20T00:45:32.883Z,1010.80
2022-12-20T00:46:32.932Z,1010.44
2022-12-20T00:47:32.801Z,1010.42
2022-12-20T00:48:32.780Z,1010.40
2022-12-20T00:49:32.725Z,1010.43
2022-12-20T00:50:32.696Z,1010.48
2022-12-20T00:51:32.691Z,1010.82
2022-12-20T00:52:32.612Z,1010.80
2022-12-20T00:53:32.581Z,1010.79
2022-12-20T00:54:32.532Z,1010.74
2022-12-20T00:55:32.494Z,1010.55
2022-12-20T00:56:32.443Z,1010.56
2022-12-20T00:57:32.395Z,1010.88
2022-12-20T00:58:32.371Z,1010.91
2022-12-20T00:59:32.323Z,1010.54
2022-12-20T01:00:32.290Z,1010.66
2022-12-20T01:01:32.426Z,1010.64
2022-12-20T01:02:32.389Z,1010.47
2022-12-20T01:03:32.201Z,1010.42
2022-12-20T01:04:32.119Z,1010.80
2022-12-20T01:05:32.074Z,1010.61
2022-12-20T01:06:32.042Z,1010.70
2022-12-20T01:07:31.988Z,1010.37
2022-12-20T01:08:31.950Z,1010.70
2022-12-20T01:09:31.907Z,1010.66
2022-12-20T01:10:31.875Z,1010.66
2022-12-20T01:11:31.824Z,1010.74
2022-12-20T01:12:31.801Z,1010.37
2022-12-20T01:13:31.745Z,1010.69
2022-12-20T01:14:31.715Z,1010.67
2022-12-20T01:15:31.663Z,1010.61
2022-12-20T01:16:31.681Z,1010.61
2022-12-20T01:17:31.584Z,1010.58
2022-12-20T01:18:31.551Z,1010.56
2022-12-20T01:19:31.498Z,1010.31
2022-12-20T01:20:31.477Z,1010.64
2022-12-20T01:21:31.426Z,1010.66
2022-12-20T01:22:31.385Z,1010.63
2022-12-20T01:23:31.340Z,1010.34
2022-12-20T01:24:31.312Z,1010.33
2022-12-20T01:25:31.274Z,1010.34
2022-12-20T01:26:31.249Z,1010.64
2022-12-20T01:27:31.177Z,1010.30
2022-12-20T01:28:31.135Z,1010.55
2022-12-20T01:29:31.094Z,1010.22
2022-12-20T01:30:31.059Z,1010.25
2022-12-20T01:31:31.047Z,1010.17
2022-12-20T01:32:30.984Z,1010.19
2022-12-20T01:33:30.928Z,1010.13
2022-12-20T01:34:30.894Z,1010.22
2022-12-20T01:35:30.861Z,1010.19
2022-12-20T01:36:30.815Z,1010.15
2022-12-20T01:37:30.768Z,1010.16
2022-12-20T01:38:30.750Z,1010.15
2022-12-20T01:39:30.696Z,1010.11
2022-12-20T01:40:30.652Z,1010.10
2022-12-20T01:41:30.606Z,1010.37
2022-12-20T01:42:30.565Z,1010.36
2022-12-20T01:43:30.526Z,1010.15
2022-12-20T01:44:30.502Z,1010.16
2022-12-20T01:45:30.537Z,1010.18
2022-12-20T01:46:30.475Z,1010.13
2022-12-20T01:47:30.360Z,1010.48
2022-12-20T01:48:30.333Z,1010.45
2022-12-20T01:49:30.284Z,1010.18
2022-12-20T01:50:30.268Z,1010.15
2022-12-20T01:51:30.202Z,1010.12
2022-12-20T01:52:30.161Z,1010.43
2022-12-20T01:53:30.117Z,1010.09
2022-12-20T01:54:30.082Z,1010.08
2022-12-20T01:55:30.035Z,1010.47
2022-12-20T01:56:30.015Z,1010.13
2022-12-20T01:57:29.971Z,1010.16
2022-12-20T01:58:29.919Z,1010.17
2022-12-20T01:59:29.880Z,1010.17
2022-12-20T02:00:29.837Z,1010.15
2022-12-20T02:01:29.968Z,1010.49
2022-12-20T02:02:29.890Z,1010.16
2022-12-20T02:03:29.718Z,1010.20
2022-12-20T02:04:29.689Z,1010.12
2022-12-20T02:05:29.629Z,1010.15
2022-12-20T02:06:29.591Z,1010.14
2022-12-20T02:07:29.557Z,1010.09
2022-12-20T02:08:29.518Z,1010.10
2022-12-20T02:09:29.471Z,1010.05
2022-12-20T02:10:29.448Z,1010.09
2022-12-20T02:11:29.396Z,1010.13
2022-12-20T02:12:29.352Z,1010.06
2022-12-20T02:13:29.318Z,1010.03
2022-12-20T02:14:29.268Z,1010.32
2022-12-20T02:15:29.222Z,1010.31
2022-12-20T02:16:29.225Z,1010.28
2022-12-20T02:17:29.143Z,1010.28
2022-12-20T02:18:29.099Z,1010.28
2022-12-20T02:19:29.064Z,1009.82
2022-12-20T02:20:29.029Z,1009.86
2022-12-20T02:21:28.978Z,1009.82
2022-12-20T02:22:28.942Z,1009.87
2022-12-20T02:23:28.918Z,1009.92
2022-12-20T02:24:28.857Z,1009.91
2022-12-20T02:25:28.824Z,1009.90
2022-12-20T02:26:28.777Z,1009.90
2022-12-20T02:27:28.747Z,1009.93
2022-12-20T02:28:28.693Z,1009.91
2022-12-20T02:29:28.652Z,1010.20
2022-12-20T02:30:28.623Z,1010.15
2022-12-20T02:31:28.688Z,1010.14
2022-12-20T02:32:28.538Z,1010.10
2022-12-20T02:33:28.488Z,1009.77
2022-12-20T02:34:28.447Z,1009.80
2022-12-20T02:35:28.407Z,1010.13
2022-12-20T02:36:28.363Z,1010.16
2022-12-20T02:37:28.335Z,1010.13
2022-12-20T02:38:28.300Z,1010.16
2022-12-20T02:39:28.240Z,1009.73
2022-12-20T02:40:28.212Z,1009.78
2022-12-20T02:41:28.155Z,1009.75
2022-12-20T02:42:28.127Z,1010.05
2022-12-20T02:43:28.092Z,1009.75
2022-12-20T02:44:28.038Z,1009.74
2022-12-20T02:45:27.992Z,1009.66
2022-12-20T02:46:28.080Z,1009.71
2022-12-20T02:47:27.910Z,1009.82
2022-12-20T02:48:27.875Z,1009.77
2022-12-20T02:49:27.848Z,1009.90
2022-12-20T02:50:27.789Z,1009.88
2022-12-20T02:51:27.752Z,1010.06
2022-12-20T02:52:27.716Z,1009.74
2022-12-20T02:53:27.664Z,1009.82
2022-12-20T02:54:27.628Z,1010.18
2022-12-20T02:55:27.593Z,1009.94
2022-12-20T02:56:27.548Z,1009.97
2022-12-20T02:57:27.504Z,1009.91
2022-12-20T02:58:27.461Z,1009.90
2022-12-20T02:59:27.421Z,1009.93
2022-12-20T03:00:27.381Z,1009.96
2022-12-20T03:01:27.439Z,1010.19
2022-12-20T03:02:27.493Z,1009.92
2022-12-20T03:03:27.365Z,1009.91
2022-12-20T03:04:27.211Z,1010.24
2022-12-20T03:05:27.173Z,1009.94
2022-12-20T03:06:27.129Z,1010.17
2022-12-20T03:07:27.414Z,1009.91
2022-12-20T03:08:27.065Z,1009.99
2022-12-20T03:09:27.004Z,1009.91
2022-12-20T03:10:26.988Z,1009.85
2022-12-20T03:11:26.930Z,1010.26
2022-12-20T03:12:26.882Z,1010.09
2022-12-20T03:13:26.871Z,1010.27
2022-12-20T03:14:26.817Z,1010.12
2022-12-20T03:15:26.768Z,1009.99
2022-12-20T03:16:26.798Z,1010.33
2022-12-20T03:17:26.679Z,1009.94
2022-12-20T03:18:26.633Z,1009.97
2022-12-20T03:19:26.619Z,1010.02
2022-12-20T03:20:26.556Z,1010.04
2022-12-20T03:21:26.526Z,1009.98
2022-12-20T03:22:26.468Z,1009.95
2022-12-20T03:23:26.453Z,1010.14
2022-12-20T03:24:26.406Z,1010.24
2022-12-20T03:25:26.362Z,1010.25
2022-12-20T03:26:26.309Z,1009.92
2022-12-20T03:27:26.280Z,1009.97
2022-12-20T03:28:26.217Z,1009.94
2022-12-20T03:29:26.188Z,1010.03
2022-12-20T03:30:26.151Z,1010.25
2022-12-20T03:31:26.173Z,1010.00
2022-12-20T03:32:26.086Z,1009.89
2022-12-20T03:33:26.022Z,1009.86
2022-12-20T03:34:25.971Z,1010.21
2022-12-20T03:35:25.930Z,1010.32
2022-12-20T03:36:25.902Z,1010.32
2022-12-20T03:37:25.852Z,1010.38
2022-12-20T03:38:25.828Z,1010.36
2022-12-20T03:39:25.784Z,1010.02
2022-12-20T03:40:25.719Z,1010.32
2022-12-20T03:41:25.860Z,1010.30
2022-12-20T03:42:25.658Z,1009.94
2022-12-20T03:43:25.613Z,1009.95
2022-12-20T03:44:25.606Z,1009.94
2022-12-20T03:45:25.523Z,1009.94
2022-12-20T03:46:25.554Z,1010.32
2022-12-20T03:47:25.433Z,1009.98
2022-12-20T03:48:25.389Z,1009.94
2022-12-20T03:49:25.365Z,1009.94
2022-12-20T03:50:25.322Z,1009.94
2022-12-20T03:51:25.276Z,1009.89
2022-12-20T03:52:25.225Z,1009.89
2022-12-20T03:53:25.195Z,1009.88
2022-12-20T03:54:25.139Z,1009.97
2022-12-20T03:55:25.099Z,1009.98
2022-12-20T03:56:25.074Z,1009.96
2022-12-20T03:57:25.023Z,1009.95
2022-12-20T03:58:24.968Z,1009.94
2022-12-20T03:59:24.935Z,1009.90
2022-12-20T04:00:24.889Z,1009.92
2022-12-20T04:01:25.077Z,1009.92
2022-12-20T04:02:25.050Z,1009.91
2022-12-20T04:03:24.830Z,1009.90
2022-12-20T04:04:24.731Z,1009.95
2022-12-20T04:05:24.705Z,1010.10
2022-12-20T04:06:24.644Z,1009.96
2022-12-20T04:07:24.634Z,1009.91
2022-12-20T04:08:24.562Z,1009.89
2022-12-20T04:09:24.538Z,1010.25
2022-12-20T04:10:24.481Z,1010.01
2022-12-20T04:11:24.435Z,1009.96
2022-12-20T04:12:24.385Z,1010.21
2022-12-20T04:13:24.381Z,1009.92
2022-12-20T04:14:24.307Z,1009.92
2022-12-20T04:15:24.311Z,1009.93
2022-12-20T04:16:24.299Z,1010.35
2022-12-20T04:17:24.195Z,1009.91
2022-12-20T04:18:24.635Z,1009.91
2022-12-20T04:19:24.137Z,1010.29
2022-12-20T04:20:24.092Z,1010.28
2022-12-20T04:21:24.033Z,1009.89
2022-12-20T04:22:23.968Z,1010.23
2022-12-20T04:23:23.929Z,1009.89
2022-12-20T04:24:23.905Z,1009.88
2022-12-20T04:25:23.850Z,1009.81
2022-12-20T04:26:23.816Z,1010.17
2022-12-20T04:27:23.797Z,1010.18
2022-12-20T04:28:23.719Z,1010.04
2022-12-20T04:29:23.712Z,1010.19
2022-12-20T04:30:23.647Z,1009.84
2022-12-20T04:31:24.597Z,1010.12
2022-12-20T04:32:23.550Z,1009.73
2022-12-20T04:33:23.526Z,1009.83
2022-12-20T04:34:23.466Z,1009.77
2022-12-20T04:35:23.435Z,1010.13
2022-12-20T04:36:23.384Z,1009.81
2022-12-20T04:37:23.354Z,1010.19
2022-12-20T04:38:23.325Z,1010.05
2022-12-20T04:39:23.275Z,1010.12
2022-12-20T04:40:23.225Z,1010.17
2022-12-20T04:41:23.216Z,1010.15
2022-12-20T04:42:23.145Z,1010.18
2022-12-20T04:43:23.102Z,1010.15
2022-12-20T04:44:23.069Z,1009.87
2022-12-20T04:45:23.047Z,1009.78
2022-12-20T04:46:23.021Z,1009.79
2022-12-20T04:47:22.938Z,1009.78
2022-12-20T04:48:55.083Z,1009.74
2022-12-20T04:49:22.852Z,1010.06
2022-12-20T04:50:22.804Z,1009.71
2022-12-20T04:51:22.785Z,1010.07
2022-12-20T04:52:22.724Z,1009.72
2022-12-20T04:53:22.706Z,1009.73
2022-12-20T04:54:22.629Z,1010.07
2022-12-20T04:55:22.592Z,1009.64
2022-12-20T04:56:22.564Z,1009.70
2022-12-20T04:57:22.504Z,1009.67
2022-12-20T04:58:22.472Z,1009.63
2022-12-20T04:59:22.432Z,1009.59
2022-12-20T05:00:22.381Z,1009.57
2022-12-20T05:01:22.452Z,1009.73
2022-12-20T05:02:22.448Z,1009.52
2022-12-20T05:03:22.313Z,1009.51
2022-12-20T05:04:22.225Z,1009.52
2022-12-20T05:05:22.178Z,1009.68
2022-12-20T05:06:22.124Z,1009.57
2022-12-20T05:07:22.092Z,1009.48
2022-12-20T05:08:22.048Z,1009.51
2022-12-20T05:09:22.009Z,1009.55
2022-12-20T05:10:21.982Z,1009.53
2022-12-20T05:11:21.931Z,1009.43
2022-12-20T05:12:21.877Z,1009.48
2022-12-20T05:13:21.842Z,1009.72
2022-12-20T05:14:21.792Z,1009.33
2022-12-20T05:15:21.755Z,1009.57
2022-12-20T05:16:21.793Z,1009.36
2022-12-20T05:17:21.679Z,1009.59
2022-12-20T05:18:21.627Z,1009.65
2022-12-20T05:19:21.584Z,1009.32
2022-12-20T05:20:21.545Z,1009.26
2022-12-20T05:21:21.515Z,1009.29
2022-12-20T05:22:21.457Z,1009.23
2022-12-20T05:23:21.424Z,1009.20
2022-12-20T05:24:21.382Z,1009.16
2022-12-20T05:25:21.349Z,1009.16
2022-12-20T05:26:21.300Z,1009.43
2022-12-20T05:27:21.274Z,1009.17
2022-12-20T05:28:21.219Z,1009.42
2022-12-20T05:29:21.176Z,1009.14
2022-12-20T05:30:21.129Z,1009.46
2022-12-20T05:31:21.159Z,1009.15
2022-12-20T05:32:21.057Z,1009.04
2022-12-20T05:33:21.025Z,1009.05
2022-12-20T05:34:20.954Z,1009.06
2022-12-20T05:35:20.919Z,1009.06
2022-12-20T05:36:20.877Z,1009.43
2022-12-20T05:37:20.852Z,1009.10
2022-12-20T05:38:20.793Z,1009.11
2022-12-20T05:39:20.783Z,1009.08
2022-12-20T05:40:20.708Z,1009.05
2022-12-20T05:41:20.671Z,1008.99
2022-12-20T05:42:20.624Z,1008.98
2022-12-20T05:43:20.629Z,1008.97
2022-12-20T05:44:20.536Z,1008.99
2022-12-20T05:45:20.515Z,1009.03
2022-12-20T05:46:20.576Z,1009.11
2022-12-20T05:47:20.426Z,1009.02
2022-12-20T05:48:20.375Z,1009.32
2022-12-20T05:49:20.344Z,1008.85
2022-12-20T05:50:20.292Z,1008.94
2022-12-20T05:51:20.272Z,1008.89
2022-12-20T05:52:20.207Z,1008.97
2022-12-20T05:53:20.216Z,1008.92
2022-12-20T05:54:20.130Z,1009.26
2022-12-20T05:55:20.088Z,1008.98
2022-12-20T05:56:20.057Z,1008.94
2022-12-20T05:57:20.025Z,1008.87
2022-12-20T05:58:19.960Z,1008.94
2022-12-20T05:59:19.922Z,1008.88
2022-12-20T06:00:19.876Z,1008.85
2022-12-20T06:01:19.874Z,1009.08
2022-12-20T06:02:19.924Z,1008.84
2022-12-20T06:03:19.883Z,1009.15
2022-12-20T06:04:19.747Z,1008.81
2022-12-20T06:05:19.674Z,1008.79
2022-12-20T06:06:19.647Z,1009.21
2022-12-20T06:07:19.600Z,1008.83
2022-12-20T06:08:19.572Z,1008.91
2022-12-20T06:09:19.511Z,1008.82
2022-12-20T06:10:19.460Z,1008.95
2022-12-20T06:11:22.050Z,1008.93
2022-12-20T06:12:19.382Z,1008.86
2022-12-20T06:13:19.333Z,1008.77
2022-12-20T06:14:19.311Z,1008.85
2022-12-20T06:15:19.260Z,1008.92
2022-12-20T06:16:19.261Z,1008.87
2022-12-20T06:17:19.170Z,1008.92
2022-12-20T06:18:19.124Z,1008.94
2022-12-20T06:19:21.716Z,1008.88
2022-12-20T06:20:19.052Z,1008.87
2022-12-20T06:21:19.004Z,1008.90
2022-12-20T06:22:18.961Z,1008.90
2022-12-20T06:23:18.920Z,1008.90
2022-12-20T06:24:18.875Z,1009.18
2022-12-20T06:25:18.846Z,1008.82
2022-12-20T06:26:18.807Z,1008.94
2022-12-20T06:27:18.794Z,1008.92
2022-12-20T06:28:18.720Z,1008.82
2022-12-20T06:29:18.670Z,1008.86
2022-12-20T06:30:18.631Z,1008.90
2022-12-20T06:31:18.674Z,1008.80
2022-12-20T06:32:18.561Z,1008.82
2022-12-20T06:33:18.520Z,1008.93
2022-12-20T06:34:18.464Z,1008.89
2022-12-20T06:35:18.428Z,1009.07
2022-12-20T06:36:18.385Z,1009.14
2022-12-20T06:37:18.339Z,1008.78
2022-12-20T06:38:18.298Z,1008.79
2022-12-20T06:39:18.271Z,1008.76
2022-12-20T06:40:18.214Z,1008.75
2022-12-20T06:41:18.195Z,1008.93
2022-12-20T06:42:18.132Z,1008.68
2022-12-20T06:43:18.095Z,1008.99
2022-12-20T06:44:18.046Z,1008.67
2022-12-20T06:45:18.019Z,1008.65
2022-12-20T06:46:18.067Z,1008.57
2022-12-20T06:47:18.005Z,1008.63
2022-12-20T06:48:17.887Z,1008.63
2022-12-20T06:49:17.846Z,1008.86
2022-12-20T06:50:17.800Z,1008.83
2022-12-20T06:51:17.785Z,1008.64
2022-12-20T06:52:17.720Z,1008.92
2022-12-20T06:53:17.685Z,1008.74
2022-12-20T06:54:17.641Z,1008.50
2022-12-20T06:55:17.598Z,1008.56
2022-12-20T06:56:17.550Z,1008.57
2022-12-20T06:57:17.541Z,1008.50
2022-12-20T06:58:17.472Z,1008.48
2022-12-20T06:59:17.455Z,1008.56
2022-12-20T07:00:17.410Z,1008.54
2022-12-20T07:01:17.414Z,1008.82
2022-12-20T07:02:17.467Z,1008.52
2022-12-20T07:03:17.464Z,1008.52
2022-12-20T07:04:17.235Z,1008.51
2022-12-20T07:05:17.194Z,1008.49
2022-12-20T07:06:17.148Z,1008.53
2022-12-20T07:07:17.129Z,1008.48
2022-12-20T07:08:17.072Z,1008.44
2022-12-20T07:09:17.029Z,1008.42
2022-12-20T07:10:16.985Z,1008.45
2022-12-20T07:11:16.951Z,1008.50
2022-12-20T07:12:16.905Z,1008.43
2022-12-20T07:13:16.861Z,1008.45
2022-12-20T07:14:16.820Z,1008.38
2022-12-20T07:15:16.787Z,1008.49
2022-12-20T07:16:16.777Z,1008.74
2022-12-20T07:17:16.698Z,1008.44
2022-12-20T07:18:16.640Z,1008.41
2022-12-20T07:19:16.619Z,1008.49
2022-12-20T07:20:16.578Z,1008.57
2022-12-20T07:21:16.524Z,1008.77
2022-12-20T07:22:16.500Z,1008.48
2022-12-20T07:23:16.461Z,1008.80
2022-12-20T07:24:16.406Z,1008.41
2022-12-20T07:25:16.358Z,1008.48
2022-12-20T07:26:16.320Z,1008.74
2022-12-20T07:27:16.281Z,1008.48
2022-12-20T07:28:16.231Z,1008.41
2022-12-20T07:29:16.416Z,1008.47
2022-12-20T07:30:16.156Z,1008.45
2022-12-20T07:31:16.109Z,1008.40
2022-12-20T07:32:16.234Z,1008.40
2022-12-20T07:33:16.039Z,1008.49
2022-12-20T07:34:15.984Z,1008.45
2022-12-20T07:35:15.951Z,1008.29
2022-12-20T07:36:15.917Z,1008.25
2022-12-20T07:37:15.867Z,1008.24
2022-12-20T07:38:15.891Z,1008.26
2022-12-20T07:39:15.776Z,1008.16
2022-12-20T07:40:15.754Z,1008.28
2022-12-20T07:41:15.711Z,1008.23
2022-12-20T07:42:15.742Z,1008.20
2022-12-20T07:43:15.616Z,1008.25
2022-12-20T07:44:15.580Z,1008.63
2022-12-20T07:45:15.600Z,1008.28
2022-12-20T07:46:15.558Z,1008.28
2022-12-20T07:47:17.686Z,1008.60
2022-12-20T07:48:19.788Z,1008.23
2022-12-20T07:49:15.360Z,1008.28
2022-12-20T07:50:15.341Z,1008.30
2022-12-20T07:51:15.285Z,1008.59
2022-12-20T07:52:15.264Z,1008.26
2022-12-20T07:53:15.214Z,1008.22
2022-12-20T07:54:15.180Z,1008.39
2022-12-20T07:55:15.149Z,1008.25
2022-12-20T07:56:15.084Z,1008.27
2022-12-20T07:57:15.156Z,1008.38
2022-12-20T07:58:14.999Z,1008.71
2022-12-20T07:59:14.963Z,1008.44
2022-12-20T08:00:14.918Z,1008.35
2022-12-20T08:01:14.925Z,1008.68
2022-12-20T08:02:15.080Z,1008.41
2022-12-20T08:03:14.961Z,1008.41
2022-12-20T08:04:14.758Z,1008.61
2022-12-20T08:05:14.716Z,1008.77
2022-12-20T08:06:14.660Z,1008.34
2022-12-20T08:07:14.628Z,1008.77
2022-12-20T08:10:17.275Z,1008.69
2022-12-20T08:10:46.590Z,1008.71
2022-12-20T08:11:46.557Z,1008.42
2022-12-20T08:12:46.508Z,1008.43
2022-12-20T08:13:47.521Z,1008.64
2022-12-20T08:14:46.417Z,1008.36
2022-12-20T08:15:46.369Z,1008.31
2022-12-20T08:16:46.410Z,1008.36
2022-12-20T08:17:46.311Z,1008.32
2022-12-20T08:18:46.248Z,1008.69
2022-12-20T08:19:46.207Z,1008.33
2022-12-20T08:20:46.169Z,1008.36
2022-12-20T08:21:46.121Z,1008.40
2022-12-20T08:22:46.087Z,1008.41
2022-12-20T08:23:46.048Z,1008.48
2022-12-20T08:24:46.000Z,1008.48
2022-12-20T08:25:45.977Z,1008.49
2022-12-20T08:26:45.935Z,1008.37
2022-12-20T08:27:45.879Z,1008.48
2022-12-20T08:28:45.834Z,1008.66
2022-12-20T08:29:45.805Z,1008.59
2022-12-20T08:30:45.786Z,1008.49
2022-12-20T08:31:50.098Z,1008.15
2022-12-20T08:32:45.676Z,1008.22
2022-12-20T08:33:45.628Z,1008.12
2022-12-20T08:34:45.630Z,1008.11
2022-12-20T08:35:45.560Z,1008.16
2022-12-20T08:36:45.504Z,1008.10
2022-12-20T08:37:45.473Z,1008.06
2022-12-20T08:38:45.445Z,1008.40
2022-12-20T08:39:45.388Z,1008.14
2022-12-20T08:40:45.341Z,1008.10
2022-12-20T08:41:45.308Z,1008.19
2022-12-20T08:42:45.256Z,1008.24
2022-12-20T08:43:45.224Z,1008.14
2022-12-20T08:44:45.199Z,1008.58
2022-12-20T08:45:45.148Z,1008.22
2022-12-20T08:46:45.164Z,1008.34
2022-12-20T08:47:45.063Z,1008.25
2022-12-20T08:48:45.012Z,1008.20
2022-12-20T08:49:47.937Z,1008.24
2022-12-20T08:50:44.970Z,1008.57
2022-12-20T08:51:44.949Z,1008.58
2022-12-20T08:52:44.849Z,1008.52
2022-12-20T08:53:44.814Z,1008.56
2022-12-20T08:54:44.767Z,1008.58
2022-12-20T08:55:44.725Z,1008.22
2022-12-20T08:56:44.682Z,1008.17
2022-12-20T08:57:44.650Z,1008.31
2022-12-20T08:58:44.623Z,1008.60
2022-12-20T08:59:44.556Z,1008.16
2022-12-20T09:00:44.523Z,1008.12
2022-12-20T09:01:44.603Z,1008.17
2022-12-20T09:02:44.531Z,1008.19
2022-12-20T09:03:44.515Z,1008.23
2022-12-20T09:04:44.367Z,1008.19
2022-12-20T09:05:44.314Z,1008.16
2022-12-20T09:06:44.277Z,1008.22
2022-12-20T09:07:44.230Z,1008.20
2022-12-20T09:08:44.198Z,1008.16
2022-12-20T09:09:44.162Z,1008.51
2022-12-20T09:10:44.120Z,1008.33
2022-12-20T09:11:44.066Z,1008.14
2022-12-20T09:12:44.030Z,1008.15
2022-12-20T09:13:44.772Z,1008.49
2022-12-20T09:14:43.944Z,1008.13
2022-12-20T09:15:43.985Z,1008.45
2022-12-20T09:16:43.875Z,1008.21
2022-12-20T09:17:43.817Z,1008.15
2022-12-20T09:18:43.789Z,1008.30
2022-12-20T09:19:43.738Z,1008.53
2022-12-20T09:20:43.696Z,1008.53
2022-12-20T09:21:43.673Z,1008.54
2022-12-20T09:22:43.620Z,1008.54
2022-12-20T09:23:43.572Z,1008.29
2022-12-20T09:24:43.571Z,1008.15
2022-12-20T09:25:46.500Z,1008.09
2022-12-20T09:26:43.459Z,1008.14
2022-12-20T09:27:43.426Z,1008.53
2022-12-20T09:28:43.382Z,1008.47
2022-12-20T09:29:43.328Z,1008.07
2022-12-20T09:30:43.310Z,1008.37
2022-12-20T09:31:43.274Z,1008.21
2022-12-20T09:32:43.212Z,1008.51
2022-12-20T09:33:43.180Z,1008.57
2022-12-20T09:34:43.127Z,1008.34
2022-12-20T09:35:43.085Z,1008.21
2022-12-20T09:36:43.044Z,1008.20
2022-12-20T09:37:43.001Z,1008.61
2022-12-20T09:38:42.964Z,1008.20
2022-12-20T09:39:42.929Z,1008.56
2022-12-20T09:40:42.885Z,1008.18
2022-12-20T09:41:42.839Z,1008.39
2022-12-20T09:42:42.797Z,1008.58
2022-12-20T09:43:42.754Z,1008.25
2022-12-20T09:44:42.716Z,1008.25
2022-12-20T09:45:42.688Z,1008.20
2022-12-20T09:46:42.703Z,1008.19
2022-12-20T09:47:42.591Z,1008.17
2022-12-20T09:48:42.551Z,1008.22
2022-12-20T09:49:42.510Z,1008.22
2022-12-20T09:50:42.472Z,1008.49
2022-12-20T09:51:42.449Z,1008.38
2022-12-20T09:52:42.390Z,1008.42
2022-12-20T09:53:42.352Z,1008.17
2022-12-20T09:54:42.301Z,1008.50
2022-12-20T09:55:42.261Z,1008.49
2022-12-20T09:56:42.247Z,1008.42
2022-12-20T09:57:42.210Z,1008.43
2022-12-20T09:58:42.159Z,1008.12
2022-12-20T09:59:47.537Z,1008.20
2022-12-20T10:00:42.073Z,1008.11
2022-12-20T10:01:42.044Z,1008.11
2022-12-20T10:03:00.125Z,1008.17
2022-12-20T10:03:42.190Z,1008.13
2022-12-20T10:04:42.161Z,1008.09
2022-12-20T10:05:42.243Z,1008.09
2022-12-20T10:06:41.867Z,1008.48
2022-12-20T10:07:41.778Z,1008.10
2022-12-20T10:08:41.747Z,1008.11
2022-12-20T10:09:41.699Z,1008.09
2022-12-20T10:10:41.655Z,1008.12
2022-12-20T10:11:49.920Z,1008.11
2022-12-20T10:12:41.565Z,1008.07
2022-12-20T10:13:41.572Z,1008.05
2022-12-20T10:14:41.495Z,1008.01
2022-12-20T10:15:41.533Z,1008.03
2022-12-20T10:16:41.401Z,1008.06
2022-12-20T10:17:41.368Z,1008.01
2022-12-20T10:18:41.333Z,1008.35
2022-12-20T10:19:41.284Z,1008.21
2022-12-20T10:20:41.249Z,1007.95
2022-12-20T10:21:41.200Z,1008.05
2022-12-20T10:22:41.158Z,1008.19
2022-12-20T10:23:41.158Z,1008.22
2022-12-20T10:24:41.079Z,1007.88
2022-12-20T10:25:41.040Z,1007.91
2022-12-20T10:26:40.994Z,1008.18
2022-12-20T10:27:40.958Z,1008.27
2022-12-20T10:28:40.913Z,1007.90
2022-12-20T10:29:40.890Z,1007.89
2022-12-20T10:30:40.831Z,1007.84
2022-12-20T10:31:40.855Z,1008.16
2022-12-20T10:32:40.767Z,1007.87
2022-12-20T10:33:40.714Z,1007.84
2022-12-20T10:34:46.663Z,1007.82
2022-12-20T10:35:40.643Z,1008.05
2022-12-20T10:36:40.594Z,1007.67
2022-12-20T10:37:44.375Z,1007.77
2022-12-20T10:38:40.506Z,1008.02
2022-12-20T10:39:40.466Z,1008.05
2022-12-20T10:41:10.649Z,1007.64
2022-12-20T10:41:40.389Z,1007.67
2022-12-20T10:42:43.131Z,1007.68
2022-12-20T10:43:40.306Z,1007.66
2022-12-20T10:44:40.267Z,1007.66
2022-12-20T10:45:40.223Z,1007.95
2022-12-20T10:46:40.209Z,1007.61
2022-12-20T10:47:40.143Z,1007.62
2022-12-20T10:48:40.134Z,1007.57
2022-12-20T10:49:40.061Z,1007.63
2022-12-20T10:50:40.044Z,1007.95
2022-12-20T10:51:39.979Z,1007.55
2022-12-20T10:52:39.947Z,1007.39
2022-12-20T10:53:39.899Z,1007.55
2022-12-20T10:54:39.864Z,1007.50
2022-12-20T10:55:39.813Z,1007.41
2022-12-20T10:56:39.777Z,1007.43
2022-12-20T10:57:39.763Z,1007.43
2022-12-20T10:58:39.698Z,1007.51
2022-12-20T10:59:39.653Z,1007.51
2022-12-20T11:00:39.623Z,1007.46
2022-12-20T11:01:39.727Z,1007.52
2022-12-20T11:02:42.142Z,1007.39
2022-12-20T11:03:39.564Z,1007.76
2022-12-20T11:04:39.469Z,1007.78
2022-12-20T11:05:39.413Z,1007.85
2022-12-20T11:06:39.387Z,1007.79
2022-12-20T11:07:41.297Z,1007.43
2022-12-20T11:08:49.923Z,1007.73
2022-12-20T11:09:39.252Z,1007.40
2022-12-20T11:10:39.227Z,1007.35
2022-12-20T11:11:39.172Z,1007.40
2022-12-20T11:12:39.128Z,1007.63
2022-12-20T11:13:39.089Z,1007.31
2022-12-20T11:14:40.007Z,1007.24
2022-12-20T11:15:39.007Z,1007.18
2022-12-20T11:16:39.050Z,1007.54
2022-12-20T11:17:38.930Z,1007.48
2022-12-20T11:18:38.897Z,1007.17
2022-12-20T11:19:38.862Z,1007.49
2022-12-20T11:20:38.803Z,1007.46
2022-12-20T11:21:38.783Z,1007.16
2022-12-20T11:22:38.724Z,1007.07
2022-12-20T11:23:38.685Z,1007.14
2022-12-20T11:24:38.651Z,1007.10
2022-12-20T11:25:38.609Z,1007.40
2022-12-20T11:26:38.572Z,1007.15
2022-12-20T11:27:38.538Z,1007.05
2022-12-20T11:28:38.489Z,1006.99
2022-12-20T11:29:38.444Z,1007.11
2022-12-20T11:30:38.398Z,1007.09
2022-12-20T11:31:38.438Z,1007.10
2022-12-20T11:32:43.046Z,1007.11
2022-12-20T11:33:38.285Z,1007.09
2022-12-20T11:34:38.249Z,1007.09
2022-12-20T11:35:38.205Z,1007.05
2022-12-20T11:36:38.172Z,1007.08
2022-12-20T11:37:38.156Z,1007.40
2022-12-20T11:38:38.085Z,1007.06
2022-12-20T11:39:38.070Z,1007.39
2022-12-20T11:40:38.009Z,1007.04
2022-12-20T11:41:37.973Z,1006.99
2022-12-20T11:42:37.930Z,1007.03
2022-12-20T11:44:00.890Z,1006.98
2022-12-20T11:44:41.718Z,1007.05
2022-12-20T11:45:37.811Z,1006.94
2022-12-20T11:46:37.807Z,1006.95
2022-12-20T11:47:37.723Z,1006.92
2022-12-20T11:48:37.682Z,1006.94
2022-12-20T11:49:37.662Z,1006.89
2022-12-20T11:50:37.597Z,1007.19
2022-12-20T11:51:37.578Z,1007.17
2022-12-20T11:52:37.517Z,1007.19
2022-12-20T11:53:37.485Z,1007.14
2022-12-20T11:54:37.484Z,1007.11
2022-12-20T11:55:37.413Z,1007.11
2022-12-20T11:56:43.551Z,1007.13
2022-12-20T11:57:55.231Z,1006.81
2022-12-20T11:58:37.281Z,1007.04
2022-12-20T11:59:37.290Z,1006.71
2022-12-20T12:00:37.219Z,1007.01
2022-12-20T12:01:37.332Z,1006.98
2022-12-20T12:02:37.273Z,1006.79
2022-12-20T12:03:37.099Z,1007.07
2022-12-20T12:04:37.051Z,1006.74
2022-12-20T12:05:37.021Z,1006.77
2022-12-20T12:06:36.966Z,1006.72